Time;durP1;ratioP1;P1;durP2;ratioP2;P2;SDS_P1;SDS_P2;PMS_P1;PMS_P2;Temp;Humidity;BMP_temperature;BMP_pressure;BME280_temperature;BME280_humidity;BME280_pressure;Samples;Min_cycle;Max_cycle;Signal;HPM_P1;HPM_P2
2023/02/15 00:00:10;;;;;;;44.25;17.83;;;;;;;;;;4976858;28;20022;-61
2023/02/15 00:02:36;;;;;;;41.38;17.55;;;;;;;;;;4983851;28;20035;-61
2023/02/15 00:05:01;;;;;;;38.72;16.98;;;;;;;;;;4977375;28;20089;-63
2023/02/15 00:07:26;;;;;;;37.50;17.48;;;;;;;;;;4984017;28;20598;-61
2023/02/15 00:09:52;;;;;;;41.88;18.67;;;;;;;;;;4981579;28;20479;-63
2023/02/15 00:12:17;;;;;;;44.55;18.73;;;;;;;;;;4984266;28;20022;-61
2023/02/15 00:14:42;;;;;;;38.08;15.95;;;;;;;;;;4988534;28;20173;-62
2023/02/15 00:17:07;;;;;;;43.03;17.67;;;;;;;;;;4985086;28;20390;-61
2023/02/15 00:19:33;;;;;;;44.20;17.33;;;;;;;;;;4990094;28;20038;-60
2023/02/15 00:21:58;;;;;;;39.72;17.30;;;;;;;;;;4981668;28;20092;-61
2023/02/15 00:24:24;;;;;;;44.78;17.10;;;;;;;;;;4981999;28;20088;-62
2023/02/15 00:26:49;;;;;;;44.97;17.02;;;;;;;;;;4988417;28;20041;-62
2023/02/15 00:29:15;;;;;;;40.88;16.20;;;;;;;;;;4980570;28;20376;-63
2023/02/15 00:31:40;;;;;;;40.15;15.98;;;;;;;;;;4985983;28;20035;-61
2023/02/15 00:34:06;;;;;;;34.40;14.90;;;;;;;;;;4984796;28;20046;-63
2023/02/15 00:36:31;;;;;;;29.60;14.70;;;;;;;;;;4981682;28;20038;-62
2023/02/15 00:38:56;;;;;;;33.13;15.02;;;;;;;;;;4988111;28;20026;-61
2023/02/15 00:41:22;;;;;;;37.25;15.82;;;;;;;;;;4983395;28;20057;-61
2023/02/15 00:43:47;;;;;;;38.25;16.40;;;;;;;;;;4985145;28;20057;-62
2023/02/15 00:46:12;;;;;;;41.88;19.20;;;;;;;;;;4983660;28;20544;-61
2023/02/15 00:48:38;;;;;;;47.05;19.80;;;;;;;;;;4982252;28;20336;-60
2023/02/15 00:51:03;;;;;;;46.20;20.83;;;;;;;;;;4989684;28;20117;-60
2023/02/15 00:53:28;;;;;;;44.90;19.90;;;;;;;;;;4981771;28;20034;-61
2023/02/15 00:55:54;;;;;;;41.08;18.60;;;;;;;;;;4986871;28;20034;-63
2023/02/15 00:58:21;;;;;;;42.35;19.13;;;;;;;;;;4988466;28;20034;-62
2023/02/15 01:00:47;;;;;;;46.08;19.63;;;;;;;;;;4982186;28;20027;-61
2023/02/15 01:03:13;;;;;;;41.25;18.42;;;;;;;;;;4987526;28;20194;-61
2023/02/15 01:05:38;;;;;;;38.63;16.42;;;;;;;;;;4965379;28;20568;-60
2023/02/15 01:08:04;;;;;;;42.15;16.98;;;;;;;;;;4990592;28;20504;-60
2023/02/15 01:10:29;;;;;;;31.85;15.15;;;;;;;;;;4986181;28;20022;-61
2023/02/15 01:12:56;;;;;;;44.70;16.42;;;;;;;;;;4981421;28;20546;-60
2023/02/15 01:15:21;;;;;;;38.05;16.08;;;;;;;;;;4986766;28;20034;-60
2023/02/15 01:17:52;;;;;;;37.22;16.17;;;;;;;;;;4991300;28;20031;-60
2023/02/15 01:20:18;;;;;;;39.15;17.17;;;;;;;;;;4978984;28;20050;-60
2023/02/15 01:22:44;;;;;;;37.10;17.05;;;;;;;;;;4985623;28;20035;-60
2023/02/15 01:25:09;;;;;;;34.13;16.08;;;;;;;;;;4964578;28;20507;-61
2023/02/15 01:27:34;;;;;;;41.20;16.98;;;;;;;;;;4984084;28;20038;-60
2023/02/15 01:30:00;;;;;;;49.38;24.58;;;;;;;;;;4978199;28;20038;-61
2023/02/15 01:32:26;;;;;;;45.42;22.52;;;;;;;;;;4976731;28;20073;-60
2023/02/15 01:34:52;;;;;;;43.07;19.40;;;;;;;;;;4982433;28;21705;-59
2023/02/15 01:37:18;;;;;;;36.70;16.50;;;;;;;;;;4975890;28;20545;-60
2023/02/15 01:39:43;;;;;;;40.28;17.38;;;;;;;;;;4984202;28;20124;-61
2023/02/15 01:42:10;;;;;;;36.85;16.60;;;;;;;;;;4978980;28;20092;-60
2023/02/15 01:44:42;;;;;;;34.33;16.03;;;;;;;;;;4978646;28;20316;-61
2023/02/15 01:47:09;;;;;;;38.38;16.08;;;;;;;;;;4983901;28;20065;-61
2023/02/15 01:49:34;;;;;;;41.30;16.30;;;;;;;;;;4977275;28;20420;-62
2023/02/15 01:51:59;;;;;;;42.80;16.55;;;;;;;;;;4984075;28;20109;-60
2023/02/15 01:54:30;;;;;;;38.85;17.02;;;;;;;;;;4979399;28;20041;-62
2023/02/15 01:56:58;;;;;;;36.92;15.90;;;;;;;;;;4975537;28;20038;-60
2023/02/15 01:59:24;;;;;;;38.85;17.15;;;;;;;;;;4980690;28;20034;-60
2023/02/15 02:01:52;;;;;;;41.90;18.30;;;;;;;;;;4977252;28;20516;-61
2023/02/15 02:04:22;;;;;;;48.63;17.85;;;;;;;;;;4997781;28;20851;-60
2023/02/15 02:06:49;;;;;;;33.25;15.10;;;;;;;;;;4978313;28;20049;-62
2023/02/15 02:09:14;;;;;;;36.53;15.68;;;;;;;;;;4977044;28;20097;-61
2023/02/15 02:11:41;;;;;;;39.92;16.55;;;;;;;;;;4993424;28;20030;-60
2023/02/15 02:14:06;;;;;;;39.55;16.08;;;;;;;;;;4974391;28;20041;-60
2023/02/15 02:16:38;;;;;;;40.25;16.58;;;;;;;;;;4981359;28;20038;-62
2023/02/15 02:19:06;;;;;;;33.17;15.65;;;;;;;;;;4980646;28;20030;-60
2023/02/15 02:21:37;;;;;;;39.80;15.43;;;;;;;;;;4987206;28;20536;-60
2023/02/15 02:24:21;;;;;;;43.83;18.02;;;;;;;;;;4974652;28;20493;-62
2023/02/15 02:26:49;;;;;;;49.50;18.70;;;;;;;;;;4991229;28;20308;-60
2023/02/15 02:29:33;;;;;;;54.83;20.00;;;;;;;;;;4977260;28;20026;-60
2023/02/15 02:32:17;;;;;;;49.10;21.10;;;;;;;;;;4981762;28;20031;-59
2023/02/15 02:34:53;;;;;;;48.63;17.73;;;;;;;;;;4959021;28;20770;-60
2023/02/15 02:37:23;;;;;;;41.55;18.15;;;;;;;;;;4977566;28;20037;-60
2023/02/15 02:40:10;;;;;;;40.25;17.50;;;;;;;;;;4977708;28;20499;-61
2023/02/15 02:42:40;;;;;;;40.03;16.37;;;;;;;;;;4976951;28;20097;-59
2023/02/15 02:45:12;;;;;;;39.85;16.33;;;;;;;;;;4977654;28;20030;-59
2023/02/15 02:47:43;;;;;;;35.35;15.75;;;;;;;;;;4975835;28;20238;-61
2023/02/15 02:50:09;;;;;;;34.58;15.40;;;;;;;;;;4977165;28;20041;-60
2023/02/15 02:52:37;;;;;;;43.53;17.67;;;;;;;;;;4984274;28;20056;-59
2023/02/15 02:55:11;;;;;;;47.30;17.55;;;;;;;;;;4976343;28;20587;-59
2023/02/15 02:57:39;;;;;;;44.85;18.92;;;;;;;;;;4972391;28;20033;-60
2023/02/15 03:00:06;;;;;;;43.65;16.23;;;;;;;;;;4982388;28;20042;-60
2023/02/15 03:02:34;;;;;;;61.67;23.40;;;;;;;;;;4975052;28;20096;-59
2023/02/15 03:05:03;;;;;;;65.72;25.40;;;;;;;;;;4976910;28;20038;-62
2023/02/15 03:07:30;;;;;;;70.20;26.27;;;;;;;;;;4999995;28;20042;-60
2023/02/15 03:09:57;;;;;;;71.38;25.33;;;;;;;;;;4993026;28;20030;-59
2023/02/15 03:12:34;;;;;;;68.97;27.17;;;;;;;;;;4981725;28;20030;-59
2023/02/15 03:15:02;;;;;;;72.07;26.20;;;;;;;;;;4974908;28;20411;-60
2023/02/15 03:17:31;;;;;;;78.38;25.67;;;;;;;;;;4974166;28;20029;-59
2023/02/15 03:20:01;;;;;;;71.53;26.80;;;;;;;;;;4982714;28;20441;-60
2023/02/15 03:22:28;;;;;;;75.00;26.13;;;;;;;;;;4986413;28;20076;-61
2023/02/15 03:24:54;;;;;;;;;;;;;;;;;;4981407;28;20121;-59
2023/02/15 03:27:25;;;;;;;61.43;21.60;;;;;;;;;;4960341;28;20342;-59
2023/02/15 03:29:53;;;;;;;67.55;23.17;;;;;;;;;;4976101;28;20653;-60
2023/02/15 03:32:18;;;;;;;;;;;;;;;;;;4982287;28;20542;-59
2023/02/15 03:34:44;;;;;;;64.85;21.02;;;;;;;;;;4977674;28;20314;-59
2023/02/15 03:37:13;;;;;;;62.97;22.92;;;;;;;;;;4983868;28;20554;-59
2023/02/15 03:39:51;;;;;;;70.70;23.38;;;;;;;;;;4974956;28;20391;-60
2023/02/15 03:42:19;;;;;;;66.93;23.58;;;;;;;;;;4974234;28;20050;-59
2023/02/15 03:44:53;;;;;;;68.35;24.38;;;;;;;;;;4981866;28;20026;-59
2023/02/15 03:47:25;;;;;;;62.75;23.10;;;;;;;;;;4971088;28;20154;-59
2023/02/15 03:49:53;;;;;;;53.97;20.42;;;;;;;;;;4975023;28;20435;-60
2023/02/15 03:52:20;;;;;;;50.13;20.00;;;;;;;;;;4981342;28;20036;-61
2023/02/15 03:54:46;;;;;;;54.70;19.70;;;;;;;;;;4976340;28;20018;-60
2023/02/15 04:02:50;;;;;;;72.50;27.73;;;;;;;;;;4976696;28;20021;-62
2023/02/15 04:05:15;;;;;;;70.25;26.60;;;;;;;;;;4982632;28;20026;-60
2023/02/15 04:07:40;;;;;;;60.88;23.77;;;;;;;;;;4975820;28;20502;-61
2023/02/15 04:12:50;;;;;;;85.10;28.63;;;;;;;;;;4980653;28;20022;-59
2023/02/15 04:18:01;;;;;;;73.75;27.48;;;;;;;;;;4976391;28;20027;-59
2023/02/15 04:25:55;;;;;;;64.65;24.23;;;;;;;;;;4975287;28;20049;-60
2023/02/15 04:28:20;;;;;;;72.60;26.05;;;;;;;;;;4981497;28;20034;-60
2023/02/15 04:30:46;;;;;;;79.75;28.80;;;;;;;;;;4974364;28;20542;-59
2023/02/15 04:33:11;;;;;;;73.18;29.00;;;;;;;;;;4980429;28;20040;-59
2023/02/15 04:35:36;;;;;;;67.63;27.05;;;;;;;;;;4976348;28;20032;-59
2023/02/15 04:38:02;;;;;;;66.68;25.67;;;;;;;;;;4976621;28;20487;-60
2023/02/15 04:40:27;;;;;;;67.15;26.00;;;;;;;;;;4982816;28;20073;-60
2023/02/15 04:42:52;;;;;;;64.47;24.40;;;;;;;;;;4976104;28;20033;-60
2023/02/15 04:45:18;;;;;;;53.47;23.33;;;;;;;;;;4981813;28;20026;-59
2023/02/15 04:47:43;;;;;;;62.05;25.00;;;;;;;;;;4981983;28;20031;-60
2023/02/15 04:50:09;;;;;;;69.22;24.98;;;;;;;;;;4976971;28;20542;-60
2023/02/15 04:52:34;;;;;;;78.30;24.88;;;;;;;;;;4979472;28;20046;-59
2023/02/15 04:54:59;;;;;;;68.15;25.98;;;;;;;;;;4975338;28;20019;-59
2023/02/15 04:57:25;;;;;;;65.28;24.90;;;;;;;;;;4987653;28;20038;-59
2023/02/15 04:59:50;;;;;;;60.95;23.30;;;;;;;;;;4977657;28;20040;-61
2023/02/15 05:02:15;;;;;;;73.95;23.80;;;;;;;;;;4974378;28;20038;-61
2023/02/15 05:04:42;;;;;;;80.03;25.77;;;;;;;;;;4983497;28;20133;-60
2023/02/15 05:07:07;;;;;;;73.82;24.65;;;;;;;;;;4979375;28;20040;-60
2023/02/15 05:09:32;;;;;;;89.82;26.80;;;;;;;;;;4984525;28;20122;-59
2023/02/15 05:11:57;;;;;;;75.43;24.65;;;;;;;;;;4979072;28;20053;-61
2023/02/15 05:14:23;;;;;;;83.45;28.30;;;;;;;;;;4978901;28;20487;-59
2023/02/15 05:16:48;;;;;;;80.45;27.77;;;;;;;;;;4984180;28;20064;-58
2023/02/15 05:19:13;;;;;;;83.97;28.10;;;;;;;;;;4977385;28;20034;-61
2023/02/15 05:21:39;;;;;;;76.68;27.50;;;;;;;;;;4984364;28;20037;-59
2023/02/15 05:28:19;;;;;;;91.03;27.10;;;;;;;;;;4981148;28;20028;-60
2023/02/15 05:29:33;;;;;;;70.50;25.90;;;;;;;;;;4983165;28;20042;-61
2023/02/15 05:31:59;;;;;;;77.43;26.08;;;;;;;;;;4976651;28;20034;-62
2023/02/15 05:34:24;;;;;;;83.88;25.08;;;;;;;;;;4979865;28;20038;-61
2023/02/15 05:36:49;;;;;;;96.10;28.95;;;;;;;;;;4983024;28;20060;-60
2023/02/15 05:39:15;;;;;;;67.85;26.35;;;;;;;;;;4981918;28;20061;-61
2023/02/15 05:41:40;;;;;;;76.00;27.63;;;;;;;;;;4983874;28;20821;-60
2023/02/15 05:44:05;;;;;;;78.18;26.63;;;;;;;;;;4977926;28;20053;-60
2023/02/15 05:46:30;;;;;;;66.72;25.33;;;;;;;;;;4979765;28;20853;-59
2023/02/15 05:48:56;;;;;;;63.80;24.75;;;;;;;;;;4985309;28;20129;-60
2023/02/15 05:51:21;;;;;;;67.90;25.67;;;;;;;;;;4978153;28;20496;-61
2023/02/15 05:53:46;;;;;;;70.72;26.63;;;;;;;;;;4981608;28;20162;-62
2023/02/15 05:56:12;;;;;;;71.38;26.63;;;;;;;;;;4976272;28;20042;-59
2023/02/15 05:58:39;;;;;;;64.65;26.77;;;;;;;;;;4978157;28;20409;-59
2023/02/15 06:01:11;;;;;;;65.90;26.75;;;;;;;;;;4983325;28;20089;-60
2023/02/15 06:03:37;;;;;;;80.32;27.83;;;;;;;;;;4973977;28;20073;-60
2023/02/15 06:06:04;;;;;;;75.80;26.90;;;;;;;;;;4979945;28;20383;-58
2023/02/15 06:08:29;;;;;;;75.10;29.10;;;;;;;;;;4974426;28;20533;-59
2023/02/15 06:10:54;;;;;;;99.10;30.70;;;;;;;;;;4971244;28;20027;-60
2023/02/15 06:13:20;;;;;;;87.32;29.67;;;;;;;;;;4983232;28;20061;-59
2023/02/15 06:15:45;;;;;;;95.55;31.85;;;;;;;;;;4977165;28;20069;-60
2023/02/15 06:18:11;;;;;;;85.55;30.33;;;;;;;;;;4984010;28;20050;-59
2023/02/15 06:20:36;;;;;;;80.63;29.35;;;;;;;;;;4976111;28;20026;-62
2023/02/15 06:23:02;;;;;;;89.57;28.70;;;;;;;;;;4978394;28;20026;-59
2023/02/15 06:25:27;;;;;;;85.13;31.02;;;;;;;;;;4982406;28;20034;-60
2023/02/15 06:27:52;;;;;;;79.70;30.10;;;;;;;;;;4975819;28;20427;-60
2023/02/15 06:30:17;;;;;;;120.68;36.50;;;;;;;;;;4981281;28;20027;-60
2023/02/15 06:32:43;;;;;;;105.13;32.65;;;;;;;;;;4975123;28;20045;-59
2023/02/15 06:35:08;;;;;;;88.40;30.40;;;;;;;;;;4978092;28;20054;-60
2023/02/15 06:37:35;;;;;;;76.18;29.45;;;;;;;;;;4965462;28;20478;-59
2023/02/15 06:40:00;;;;;;;89.88;27.40;;;;;;;;;;4976742;28;20034;-61
2023/02/15 06:42:26;;;;;;;79.63;27.63;;;;;;;;;;4982341;28;20093;-61
2023/02/15 06:44:51;;;;;;;81.97;27.65;;;;;;;;;;4977688;28;20034;-59
2023/02/15 06:47:16;;;;;;;77.00;26.58;;;;;;;;;;4970739;28;20402;-59
2023/02/15 06:49:41;;;;;;;90.18;30.67;;;;;;;;;;4985012;28;20459;-60
2023/02/15 06:52:07;;;;;;;82.32;29.17;;;;;;;;;;4978836;28;20060;-59
2023/02/15 06:54:32;;;;;;;73.78;26.33;;;;;;;;;;4986855;28;20040;-59
2023/02/15 06:56:57;;;;;;;66.70;25.60;;;;;;;;;;4977186;28;20093;-59
2023/02/15 06:59:23;;;;;;;77.60;27.95;;;;;;;;;;4973500;28;20033;-61
2023/02/15 07:01:48;;;;;;;83.40;29.35;;;;;;;;;;4982981;28;20034;-62
2023/02/15 07:04:14;;;;;;;72.05;28.02;;;;;;;;;;4976394;28;20100;-61
2023/02/15 07:06:40;;;;;;;75.75;28.25;;;;;;;;;;4994558;28;20435;-60
2023/02/15 07:09:05;;;;;;;78.75;29.27;;;;;;;;;;4973766;28;20666;-62
2023/02/15 07:14:14;;;;;;;84.70;28.92;;;;;;;;;;4978663;28;20444;-60
2023/02/15 07:16:40;;;;;;;91.07;33.65;;;;;;;;;;4979965;28;20029;-59
2023/02/15 07:19:06;;;;;;;89.35;28.55;;;;;;;;;;4980941;28;20686;-60
2023/02/15 07:21:32;;;;;;;88.93;28.27;;;;;;;;;;4986577;28;20105;-59
2023/02/15 07:23:58;;;;;;;89.55;30.13;;;;;;;;;;4980833;28;20367;-60
2023/02/15 07:26:23;;;;;;;82.70;30.63;;;;;;;;;;4987612;28;20038;-60
2023/02/15 07:28:49;;;;;;;89.95;30.52;;;;;;;;;;4980396;28;20033;-61
2023/02/15 07:31:14;;;;;;;93.47;30.05;;;;;;;;;;4977907;28;21065;-58
2023/02/15 07:33:39;;;;;;;90.13;29.52;;;;;;;;;;4982867;28;20030;-59
2023/02/15 07:36:05;;;;;;;90.85;30.70;;;;;;;;;;4979080;28;20042;-61
2023/02/15 07:38:34;;;;;;;97.90;31.27;;;;;;;;;;4978761;28;20418;-61
2023/02/15 07:41:00;;;;;;;86.78;29.80;;;;;;;;;;4967548;28;20116;-59
2023/02/15 07:43:26;;;;;;;93.10;29.52;;;;;;;;;;4969744;28;20700;-60
2023/02/15 07:45:51;;;;;;;77.05;28.67;;;;;;;;;;4976007;28;20475;-59
2023/02/15 07:48:17;;;;;;;66.53;26.08;;;;;;;;;;4970448;28;20188;-60
2023/02/15 07:50:42;;;;;;;75.05;28.25;;;;;;;;;;4972674;28;20052;-64
2023/02/15 07:53:08;;;;;;;82.32;31.10;;;;;;;;;;4965110;28;20137;-61
2023/02/15 07:55:33;;;;;;;76.15;28.45;;;;;;;;;;4966505;28;21539;-61
2023/02/15 07:57:58;;;;;;;77.13;26.58;;;;;;;;;;4979145;28;20022;-61
2023/02/15 08:00:29;;;;;;;67.35;24.75;;;;;;;;;;4967262;28;20039;-59
2023/02/15 08:03:13;;;;;;;71.10;28.17;;;;;;;;;;4972615;28;20077;-59
2023/02/15 08:05:44;;;;;;;73.25;27.80;;;;;;;;;;4978548;28;20070;-59
2023/02/15 08:08:29;;;;;;;65.20;27.35;;;;;;;;;;4976633;28;20765;-61
2023/02/15 08:11:54;;;;;;;71.85;27.90;;;;;;;;;;4980592;28;20080;-61
2023/02/15 08:14:14;;;;;;;66.90;26.65;;;;;;;;;;4978470;28;20163;-62
2023/02/15 08:16:40;;;;;;;86.50;34.35;;;;;;;;;;4979310;28;20053;-60
2023/02/15 08:19:12;;;;;;;71.22;30.75;;;;;;;;;;4981089;28;20141;-60
2023/02/15 08:21:40;;;;;;;82.43;31.42;;;;;;;;;;4974607;28;20517;-61
2023/02/15 08:24:07;;;;;;;68.05;28.25;;;;;;;;;;4977585;28;20038;-60
2023/02/15 08:26:33;;;;;;;62.72;26.75;;;;;;;;;;4982646;28;20121;-60
2023/02/15 08:28:59;;;;;;;71.47;28.35;;;;;;;;;;4976310;28;20487;-61
2023/02/15 08:31:24;;;;;;;68.43;27.45;;;;;;;;;;4984201;28;20026;-61
2023/02/15 08:33:50;;;;;;;87.32;32.15;;;;;;;;;;4979353;28;20077;-61
2023/02/15 08:36:17;;;;;;;70.35;29.27;;;;;;;;;;4993710;28;20034;-58
2023/02/15 08:38:43;;;;;;;69.63;29.42;;;;;;;;;;4986535;28;20041;-59
2023/02/15 08:41:09;;;;;;;68.95;27.95;;;;;;;;;;4982745;28;20022;-61
2023/02/15 08:43:35;;;;;;;74.93;29.70;;;;;;;;;;4987727;28;20030;-61
2023/02/15 08:46:00;;;;;;;84.20;34.25;;;;;;;;;;4978002;28;20955;-59
2023/02/15 08:48:25;;;;;;;75.47;31.42;;;;;;;;;;4981304;28;20041;-60
2023/02/15 08:50:51;;;;;;;73.55;31.10;;;;;;;;;;4987120;28;20033;-60
2023/02/15 08:53:20;;;;;;;77.93;31.08;;;;;;;;;;4980001;28;20084;-59
2023/02/15 08:55:45;;;;;;;63.83;28.55;;;;;;;;;;4987132;28;20084;-59
2023/02/15 08:58:10;;;;;;;74.72;31.15;;;;;;;;;;4978024;28;20034;-59
2023/02/15 09:00:35;;;;;;;72.22;29.15;;;;;;;;;;4978870;28;20034;-60
2023/02/15 09:03:01;;;;;;;71.05;28.98;;;;;;;;;;4984206;28;20113;-61
2023/02/15 09:05:26;;;;;;;80.63;33.13;;;;;;;;;;4978483;28;20874;-60
2023/02/15 09:07:51;;;;;;;76.78;30.38;;;;;;;;;;4985415;28;20523;-59
2023/02/15 09:10:17;;;;;;;76.82;32.15;;;;;;;;;;4978964;28;20022;-59
2023/02/15 09:12:42;;;;;;;71.45;29.95;;;;;;;;;;4979494;28;20035;-59
2023/02/15 09:15:08;;;;;;;78.38;31.45;;;;;;;;;;4985688;28;20034;-60
2023/02/15 09:17:33;;;;;;;70.70;28.75;;;;;;;;;;4980340;28;20026;-62
2023/02/15 09:19:58;;;;;;;68.88;28.77;;;;;;;;;;4982763;28;20471;-60
2023/02/15 09:22:24;;;;;;;70.90;29.30;;;;;;;;;;4977387;28;20030;-59
2023/02/15 09:24:49;;;;;;;72.25;29.35;;;;;;;;;;4980929;28;20045;-58
2023/02/15 09:27:14;;;;;;;70.88;29.50;;;;;;;;;;4985266;28;20977;-59
2023/02/15 09:29:39;;;;;;;71.82;29.67;;;;;;;;;;4979497;28;20037;-59
2023/02/15 09:32:05;;;;;;;67.10;27.98;;;;;;;;;;4982552;28;20037;-60
2023/02/15 09:34:30;;;;;;;66.03;28.48;;;;;;;;;;4980989;28;20110;-60
2023/02/15 09:36:55;;;;;;;68.05;30.70;;;;;;;;;;4978407;28;20026;-58
2023/02/15 09:39:23;;;;;;;77.88;31.50;;;;;;;;;;4983256;28;20388;-60
2023/02/15 09:41:51;;;;;;;74.20;30.67;;;;;;;;;;4995007;28;20045;-60
2023/02/15 09:44:17;;;;;;;77.28;30.02;;;;;;;;;;4979078;28;20030;-61
2023/02/15 09:46:52;;;;;;;71.97;31.85;;;;;;;;;;4988708;28;20497;-59
2023/02/15 09:49:23;;;;;;;76.45;32.00;;;;;;;;;;4966775;28;20062;-60
2023/02/15 09:52:01;;;;;;;77.40;31.27;;;;;;;;;;4956213;28;20038;-59
2023/02/15 09:54:26;;;;;;;;;;;;;;;;;;4950955;28;20031;-62
2023/02/15 09:56:53;;;;;;;69.93;30.20;;;;;;;;;;4951305;28;19964;-60
2023/02/15 09:59:21;;;;;;;75.60;31.20;;;;;;;;;;4966977;28;20815;-60
2023/02/15 10:01:59;;;;;;;66.95;30.40;;;;;;;;;;4957046;28;20034;-59
2023/02/15 10:04:24;;;;;;;;;;;;;;;;;;4953322;28;20065;-60
2023/02/15 10:06:49;;;;;;;65.60;28.93;;;;;;;;;;4959132;28;20016;-58
2023/02/15 10:09:27;;;;;;;64.65;30.60;;;;;;;;;;4955510;28;20416;-60
2023/02/15 10:12:13;;;;;;;69.88;28.70;;;;;;;;;;4964211;28;21371;-58
2023/02/15 10:14:48;;;;;;;63.50;29.52;;;;;;;;;;4961109;28;20027;-60
2023/02/15 10:17:26;;;;;;;62.88;29.50;;;;;;;;;;4958315;28;20121;-59
2023/02/15 10:20:10;;;;;;;65.22;29.77;;;;;;;;;;4967247;28;20038;-60
2023/02/15 10:22:51;;;;;;;59.42;28.33;;;;;;;;;;4960244;28;20031;-59
2023/02/15 10:25:25;;;;;;;69.65;29.65;;;;;;;;;;4958710;28;20042;-59
2023/02/15 10:27:50;;;;;;;66.95;29.23;;;;;;;;;;4978703;28;20047;-59
2023/02/15 10:30:39;;;;;;;56.70;27.25;;;;;;;;;;4950152;28;20031;-61
2023/02/15 10:33:10;;;;;;;62.78;27.15;;;;;;;;;;4951118;28;20563;-59
2023/02/15 10:35:41;;;;;;;63.88;27.45;;;;;;;;;;4963418;28;20069;-61
2023/02/15 10:38:06;;;;;;;55.50;27.33;;;;;;;;;;4956996;28;20110;-59
2023/02/15 10:40:51;;;;;;;58.22;27.25;;;;;;;;;;4973568;28;20812;-61
2023/02/15 10:43:17;;;;;;;55.40;25.80;;;;;;;;;;4966053;28;20030;-60
2023/02/15 10:46:08;;;;;;;49.90;24.83;;;;;;;;;;4960473;28;20030;-60
2023/02/15 10:48:37;;;;;;;59.03;25.52;;;;;;;;;;4962830;28;20050;-61
2023/02/15 10:51:04;;;;;;;48.40;23.95;;;;;;;;;;4956528;28;20026;-61
2023/02/15 10:53:45;;;;;;;53.47;25.90;;;;;;;;;;4955775;28;20034;-60
2023/02/15 10:56:32;;;;;;;54.38;25.75;;;;;;;;;;4962912;28;20046;-62
2023/02/15 10:59:00;;;;;;;51.75;25.10;;;;;;;;;;4956946;28;20046;-59
2023/02/15 11:01:38;;;;;;;54.03;25.92;;;;;;;;;;4958303;28;20058;-60
2023/02/15 11:04:03;;;;;;;53.72;24.17;;;;;;;;;;4964322;28;20018;-59
2023/02/15 11:06:29;;;;;;;50.08;24.48;;;;;;;;;;4957713;28;20410;-59
2023/02/15 11:09:03;;;;;;;44.08;22.85;;;;;;;;;;4964741;28;20041;-60
2023/02/15 11:11:34;;;;;;;55.10;23.90;;;;;;;;;;4962571;28;20031;-58
2023/02/15 11:14:02;;;;;;;46.47;24.27;;;;;;;;;;4957151;28;20031;-59
2023/02/15 11:16:27;;;;;;;;;;;;;;;;;;4962674;28;20030;-60
2023/02/15 11:18:54;;;;;;;52.17;22.97;;;;;;;;;;4954163;28;19928;-61
2023/02/15 11:21:22;;;;;;;43.60;23.35;;;;;;;;;;4956355;28;20281;-61
2023/02/15 11:23:47;;;;;;;44.55;22.60;;;;;;;;;;4964948;28;20077;-60
2023/02/15 11:26:15;;;;;;;43.58;21.95;;;;;;;;;;4943702;28;20099;-59
2023/02/15 11:28:56;;;;;;;43.92;21.92;;;;;;;;;;4961056;28;20141;-60
2023/02/15 11:31:24;;;;;;;41.92;21.73;;;;;;;;;;4956145;28;20033;-61
2023/02/15 11:33:52;;;;;;;39.78;21.40;;;;;;;;;;4957972;28;20357;-60
2023/02/15 11:36:26;;;;;;;41.75;19.73;;;;;;;;;;4961301;28;20049;-62
2023/02/15 11:38:56;;;;;;;37.15;19.40;;;;;;;;;;4959693;28;20031;-60
2023/02/15 11:41:24;;;;;;;36.30;19.75;;;;;;;;;;4957283;28;20169;-60
2023/02/15 11:44:08;;;;;;;34.80;19.27;;;;;;;;;;4939085;28;20434;-59
2023/02/15 11:46:34;;;;;;;28.85;17.02;;;;;;;;;;4984390;28;20038;-59
2023/02/15 11:48:59;;;;;;;32.33;18.98;;;;;;;;;;4983715;28;20057;-61
2023/02/15 11:51:26;;;;;;;34.55;17.20;;;;;;;;;;4983026;28;20057;-61
2023/02/15 11:53:52;;;;;;;31.02;17.38;;;;;;;;;;4983988;28;20030;-58
2023/02/15 11:56:20;;;;;;;24.80;15.68;;;;;;;;;;4982191;28;20644;-59
2023/02/15 11:58:51;;;;;;;26.70;17.10;;;;;;;;;;4982719;28;20034;-59
2023/02/15 12:01:28;;;;;;;23.65;14.40;;;;;;;;;;4984792;28;20479;-60
2023/02/15 12:03:57;;;;;;;26.60;14.68;;;;;;;;;;4986266;28;20068;-60
2023/02/15 12:06:22;;;;;;;22.13;15.68;;;;;;;;;;4987005;28;20041;-60
2023/02/15 12:08:53;;;;;;;24.95;15.27;;;;;;;;;;4986224;28;20042;-60
2023/02/15 12:11:27;;;;;;;22.70;14.00;;;;;;;;;;4986068;28;20038;-59
2023/02/15 12:13:54;;;;;;;21.20;14.13;;;;;;;;;;4988035;28;20527;-59
2023/02/15 12:16:20;;;;;;;19.85;14.13;;;;;;;;;;4987784;28;20499;-60
2023/02/15 12:18:46;;;;;;;21.73;13.73;;;;;;;;;;4990868;28;20060;-60
2023/02/15 12:21:15;;;;;;;22.67;15.15;;;;;;;;;;4985128;28;20030;-60
2023/02/15 12:23:48;;;;;;;22.92;14.43;;;;;;;;;;4986069;28;20022;-59
2023/02/15 12:26:14;;;;;;;19.38;12.65;;;;;;;;;;4983431;28;20038;-58
2023/02/15 12:28:40;;;;;;;23.77;13.57;;;;;;;;;;4976574;28;20055;-58
2023/02/15 12:31:06;;;;;;;;;;;;;;;;;;4965135;28;20054;-60
2023/02/15 12:33:40;;;;;;;18.70;13.00;;;;;;;;;;4987934;28;19983;-59
2023/02/15 12:36:18;;;;;;;20.60;13.00;;;;;;;;;;4999103;28;20038;-59
2023/02/15 12:39:01;;;;;;;19.20;12.50;;;;;;;;;;4983180;28;20026;-59
2023/02/15 12:41:26;;;;;;;18.65;13.25;;;;;;;;;;4985263;28;20046;-59
2023/02/15 12:44:15;;;;;;;20.93;13.70;;;;;;;;;;4987910;28;20037;-60
2023/02/15 12:46:41;;;;;;;20.73;13.88;;;;;;;;;;4984519;28;20593;-60
2023/02/15 12:49:09;;;;;;;22.27;14.70;;;;;;;;;;4984418;28;20522;-59
2023/02/15 12:51:42;;;;;;;20.17;14.07;;;;;;;;;;4984503;28;20063;-60
2023/02/15 12:54:26;;;;;;;17.98;13.38;;;;;;;;;;4986992;28;20113;-59
2023/02/15 12:56:51;;;;;;;19.80;14.23;;;;;;;;;;4984426;28;20169;-59
2023/02/15 12:59:20;;;;;;;21.47;14.27;;;;;;;;;;4985727;28;20113;-58
2023/02/15 13:01:46;;;;;;;18.48;12.82;;;;;;;;;;4985734;28;20042;-59
2023/02/15 13:04:25;;;;;;;20.93;14.37;;;;;;;;;;4983026;28;20038;-59
2023/02/15 13:06:52;;;;;;;16.33;12.57;;;;;;;;;;4982841;28;20038;-59
2023/02/15 13:09:37;;;;;;;18.38;13.52;;;;;;;;;;4984820;28;20035;-58
2023/02/15 13:12:12;;;;;;;16.88;12.57;;;;;;;;;;4985422;28;20061;-59
2023/02/15 13:14:43;;;;;;;19.40;12.82;;;;;;;;;;4987180;28;20121;-59
2023/02/15 13:17:09;;;;;;;18.42;12.20;;;;;;;;;;4985479;28;20074;-59
2023/02/15 13:19:36;;;;;;;20.90;11.82;;;;;;;;;;4989055;28;20042;-59
2023/02/15 13:22:04;;;;;;;18.25;11.70;;;;;;;;;;4987249;28;20085;-59
2023/02/15 13:24:33;;;;;;;22.08;11.48;;;;;;;;;;4989246;28;20406;-59
2023/02/15 13:26:59;;;;;;;18.27;12.32;;;;;;;;;;4991074;28;20066;-58
2023/02/15 13:29:26;;;;;;;16.60;11.50;;;;;;;;;;5003945;28;20030;-58
2023/02/15 13:31:52;;;;;;;19.15;12.07;;;;;;;;;;4987930;28;20135;-58
2023/02/15 13:34:33;;;;;;;18.98;11.00;;;;;;;;;;4987382;28;20030;-60
2023/02/15 13:37:05;;;;;;;18.25;11.73;;;;;;;;;;4986147;28;20034;-58
2023/02/15 13:39:51;;;;;;;14.70;9.95;;;;;;;;;;4988703;28;20042;-59
2023/02/15 13:42:30;;;;;;;15.40;11.02;;;;;;;;;;4988790;28;20632;-58
2023/02/15 13:44:58;;;;;;;17.90;11.27;;;;;;;;;;4988221;28;20042;-58
2023/02/15 13:47:24;;;;;;;14.63;10.18;;;;;;;;;;4987398;28;20046;-59
2023/02/15 13:49:49;;;;;;;12.20;9.80;;;;;;;;;;4989033;28;20037;-59
2023/02/15 13:52:21;;;;;;;15.97;10.20;;;;;;;;;;4988776;28;20115;-59
2023/02/15 13:54:46;;;;;;;14.65;10.05;;;;;;;;;;4988264;28;20034;-59
2023/02/15 13:57:31;;;;;;;15.57;10.20;;;;;;;;;;4987965;28;20042;-59
2023/02/15 14:00:34;;;;;;;15.88;9.68;;;;;;;;;;4985112;28;20407;-59
2023/02/15 14:03:00;;;;;;;15.10;10.60;;;;;;;;;;4934197;29;20129;-60
2023/02/15 14:05:37;;;;;;;15.57;10.67;;;;;;;;;;4937083;29;20111;-60
2023/02/15 14:08:04;;;;;;;13.85;10.00;;;;;;;;;;4968066;28;20054;-60
2023/02/15 14:10:33;;;;;;;15.60;10.30;;;;;;;;;;4989714;28;20073;-59
2023/02/15 14:13:07;;;;;;;18.58;10.80;;;;;;;;;;4990100;28;20038;-57
2023/02/15 14:15:41;;;;;;;21.70;10.48;;;;;;;;;;4986108;28;20395;-60
2023/02/15 14:18:10;;;;;;;15.35;9.68;;;;;;;;;;4987176;28;20027;-59
2023/02/15 14:20:41;;;;;;;13.70;10.20;;;;;;;;;;4988581;28;20072;-59
2023/02/15 14:23:19;;;;;;;14.95;10.02;;;;;;;;;;4988500;28;20034;-58
2023/02/15 14:25:51;;;;;;;16.30;10.85;;;;;;;;;;4978276;28;20119;-58
2023/02/15 14:28:22;;;;;;;15.10;10.90;;;;;;;;;;4980458;28;20626;-58
2023/02/15 14:30:49;;;;;;;18.92;10.00;;;;;;;;;;4989233;28;20030;-58
2023/02/15 14:33:15;;;;;;;;;;;;;;;;;;4990175;28;20064;-59
2023/02/15 14:35:42;;;;;;;17.50;10.48;;;;;;;;;;4989363;28;20219;-58
2023/02/15 14:38:15;;;;;;;15.23;10.68;;;;;;;;;;4985988;28;20037;-59
2023/02/15 14:41:03;;;;;;;15.40;10.43;;;;;;;;;;4984271;28;20030;-59
2023/02/15 14:43:31;;;;;;;16.52;10.90;;;;;;;;;;4975738;28;20061;-59
2023/02/15 14:46:17;;;;;;;14.88;10.00;;;;;;;;;;4987002;28;20752;-60
2023/02/15 14:48:54;;;;;;;17.52;9.80;;;;;;;;;;4977521;28;20054;-58